Lime Springs, Iowa
Current Conditions -  °F | °C
As of 3:35 AM on Saturday 29 Nov 2014 (Local Time) from KFKA Reporting Station
Haze Haze  
Wind Chill: 17°   Ceiling: 400
Heat Index: 25°   Visibility: 3mi
Dew Point: 24°   Wind: 7mph
Humidity: 96%   Direction: 150°SSE
Pressure: 29.59"   Gusts: NA
Location:  43.45°N, 92.28°W
Report Text: KFKA 290935Z AUTO 15006KT 3SM BR BKN004 BKN008 M04/M05 A2959 RMK AO2 T10411046
Loading
Personal Weather Stations






























Interactive Weather Map New forecast layout! Learn more

10-Day Weather Forecast

Advertisements
Track Severe Weather on mobile